createdAt,value
2023-04-14T00:02:25.366Z,87.50
2023-04-14T00:04:53.992Z,87.46
2023-04-14T00:07:21.982Z,87.26
2023-04-14T00:09:49.679Z,86.89
2023-04-14T00:12:17.443Z,86.96
2023-04-14T00:14:45.285Z,87.11
2023-04-14T00:17:13.252Z,87.70
2023-04-14T00:19:41.752Z,88.37
2023-04-14T00:22:09.685Z,88.49
2023-04-14T00:24:43.066Z,88.71
2023-04-14T00:27:11.208Z,88.51
2023-04-14T00:29:39.399Z,88.08
2023-04-14T00:32:07.291Z,87.84
2023-04-14T00:34:37.040Z,87.72
2023-04-14T00:37:05.031Z,87.80
2023-04-14T00:39:32.878Z,87.50
2023-04-14T00:42:04.789Z,87.49
2023-04-14T00:44:32.544Z,87.68
2023-04-14T00:47:01.704Z,87.33
2023-04-14T00:49:29.536Z,87.38
2023-04-14T00:52:01.051Z,87.51
2023-04-14T00:54:29.110Z,87.67
2023-04-14T00:56:58.652Z,87.69
2023-04-14T00:59:28.840Z,87.81
2023-04-14T01:02:01.087Z,87.94
2023-04-14T01:04:37.039Z,87.98
2023-04-14T01:07:12.993Z,88.61
2023-04-14T01:09:41.075Z,88.99
2023-04-14T01:12:33.378Z,89.24
2023-04-14T01:15:39.119Z,89.86
2023-04-14T01:18:19.887Z,90.59
2023-04-14T01:20:54.544Z,91.18
2023-04-14T01:23:32.143Z,91.37
2023-04-14T01:26:19.863Z,91.32
2023-04-14T01:29:22.085Z,91.03
2023-04-14T01:32:11.532Z,90.85
2023-04-14T01:34:52.522Z,90.95
2023-04-14T01:37:32.213Z,90.80
2023-04-14T01:40:07.980Z,90.65
2023-04-14T01:42:37.977Z,90.43
2023-04-14T01:45:28.903Z,91.54
2023-04-14T01:47:59.469Z,92.78
2023-04-14T01:50:28.680Z,92.64
2023-04-14T01:52:58.936Z,91.94
2023-04-14T01:55:29.286Z,91.44
2023-04-14T01:57:58.788Z,91.51
2023-04-14T02:00:27.648Z,91.56
2023-04-14T02:02:57.124Z,91.44
2023-04-14T02:05:26.203Z,91.93
2023-04-14T02:07:55.799Z,92.86
2023-04-14T02:10:24.495Z,93.16
2023-04-14T02:12:58.451Z,93.07
2023-04-14T02:21:42.850Z,92.74
2023-04-14T02:24:10.814Z,93.24
2023-04-14T02:26:45.584Z,92.94
2023-04-14T02:29:16.405Z,92.54
2023-04-14T02:31:49.870Z,92.28
2023-04-14T02:34:23.961Z,92.08
2023-04-14T02:36:57.604Z,91.62
2023-04-14T02:39:41.859Z,91.68
2023-04-14T02:42:17.831Z,91.82
2023-04-14T02:44:51.730Z,91.79
2023-04-14T02:47:27.201Z,91.91
2023-04-14T02:50:00.612Z,91.78
2023-04-14T02:52:32.920Z,91.74
2023-04-14T02:55:02.895Z,91.90
2023-04-14T02:57:33.155Z,91.85
2023-04-14T03:00:06.211Z,91.81
2023-04-14T03:02:38.322Z,92.15
2023-04-14T03:05:07.928Z,92.76
2023-04-14T03:07:37.671Z,93.33
2023-04-14T03:10:07.124Z,93.36
2023-04-14T03:12:36.173Z,93.49
2023-04-14T03:15:09.511Z,93.57
2023-04-14T03:17:38.204Z,93.61
2023-04-14T03:20:07.092Z,93.68
2023-04-14T03:22:40.687Z,93.73
2023-04-14T03:25:10.074Z,93.78
2023-04-14T03:27:40.484Z,93.93
2023-04-14T03:30:10.788Z,93.88
2023-04-14T03:32:42.350Z,93.75
2023-04-14T03:35:13.067Z,93.77
2023-04-14T03:37:44.817Z,94.08
2023-04-14T03:40:15.553Z,94.28
2023-04-14T03:42:46.320Z,94.59
2023-04-14T03:45:14.074Z,94.61
2023-04-14T03:47:42.104Z,94.80
2023-04-14T03:50:11.413Z,95.19
2023-04-14T03:52:43.815Z,95.90
2023-04-14T03:55:12.706Z,96.89
2023-04-14T03:57:43.953Z,97.15
2023-04-14T04:00:17.070Z,97.66
2023-04-14T04:02:46.598Z,97.65
2023-04-14T04:05:15.177Z,97.57
2023-04-14T04:07:45.184Z,97.65
2023-04-14T04:10:20.606Z,97.30
2023-04-14T04:12:50.786Z,97.02
2023-04-14T04:15:18.705Z,96.86
2023-04-14T04:17:50.255Z,96.94
2023-04-14T04:20:19.386Z,97.02
2023-04-14T04:22:51.556Z,96.98
2023-04-14T04:25:19.998Z,97.17
2023-04-14T04:27:49.809Z,96.92
2023-04-14T04:30:19.011Z,96.83
2023-04-14T04:32:47.890Z,96.80
2023-04-14T04:35:17.370Z,96.51
2023-04-14T04:37:46.334Z,96.74
2023-04-14T04:40:25.676Z,96.77
2023-04-14T04:42:53.926Z,96.61
2023-04-14T04:45:53.678Z,96.61
2023-04-14T04:48:21.544Z,96.63
2023-04-14T04:50:49.669Z,96.71
2023-04-14T04:53:17.403Z,96.82
2023-04-14T04:56:40.631Z,96.99
2023-04-14T04:59:09.535Z,97.31
2023-04-14T05:02:07.323Z,97.65
2023-04-14T05:04:35.735Z,98.16
2023-04-14T05:07:03.620Z,97.76
2023-04-14T05:09:31.381Z,97.19
2023-04-14T05:11:59.200Z,97.47
2023-04-14T05:15:16.834Z,96.83
2023-04-14T05:17:44.589Z,96.27
2023-04-14T05:20:13.215Z,95.87
2023-04-14T05:22:41.622Z,95.51
2023-04-14T05:25:09.478Z,95.24
2023-04-14T05:29:45.850Z,94.60
2023-04-14T05:33:17.370Z,94.60
2023-04-14T05:47:17.202Z,92.16
2023-04-14T05:50:04.258Z,92.03
2023-04-14T05:53:45.626Z,92.38
2023-04-14T05:57:22.575Z,92.03
2023-04-14T06:01:04.232Z,92.46
2023-04-14T06:04:45.554Z,91.96
2023-04-14T06:08:45.554Z,91.89
2023-04-14T06:12:01.531Z,91.66
2023-04-14T06:16:00.305Z,91.12
2023-04-14T06:19:21.712Z,90.58
2023-04-14T06:23:04.769Z,89.94
2023-04-14T06:26:54.982Z,89.09
2023-04-14T06:30:35.962Z,88.69
2023-04-14T06:34:16.276Z,86.37
2023-04-14T06:37:48.171Z,85.76
2023-04-14T06:41:27.663Z,84.56
2023-04-14T06:44:46.503Z,82.75
2023-04-14T06:48:27.375Z,81.85
2023-04-14T06:52:05.770Z,79.42
2023-04-14T06:56:11.019Z,76.44
2023-04-14T06:59:29.683Z,74.27
2023-04-14T07:03:00.160Z,73.45
2023-04-14T07:06:39.086Z,71.59
2023-04-14T07:10:23.371Z,70.54
2023-04-14T07:13:56.179Z,68.74
2023-04-14T07:18:00.633Z,66.67
2023-04-14T07:25:37.528Z,62.21
2023-04-14T07:28:56.586Z,61.58
2023-04-14T07:32:33.538Z,58.91
2023-04-14T07:36:14.452Z,56.13
2023-04-14T07:40:12.266Z,59.45
2023-04-14T07:43:35.236Z,58.82
2023-04-14T07:47:17.168Z,60.00
2023-04-14T07:50:50.370Z,56.48
2023-04-14T07:54:46.890Z,54.84
2023-04-14T07:58:05.341Z,54.07
2023-04-14T08:01:42.961Z,54.25
2023-04-14T08:05:22.706Z,54.00
2023-04-14T08:09:05.499Z,53.60
2023-04-14T08:12:44.241Z,52.68
2023-04-14T08:16:41.083Z,52.54
2023-04-14T08:20:22.302Z,55.36
2023-04-14T08:23:56.691Z,53.69
2023-04-14T08:41:39.250Z,47.52
2023-04-14T08:45:02.198Z,49.83
2023-04-14T08:48:50.928Z,49.53
2023-04-14T08:52:16.405Z,49.44
2023-04-14T08:56:19.269Z,46.87
2023-04-14T08:59:07.189Z,44.88
2023-04-14T09:02:45.844Z,44.38
2023-04-14T09:06:38.799Z,44.37
2023-04-14T09:10:14.124Z,46.00
2023-04-14T09:14:09.829Z,47.08
2023-04-14T09:27:56.043Z,46.11
2023-04-14T09:31:04.681Z,46.59
2023-04-14T09:35:14.706Z,45.88
2023-04-14T09:38:12.564Z,45.31
2023-04-14T09:41:47.897Z,42.88
2023-04-14T09:55:54.986Z,39.08
2023-04-14T09:58:50.573Z,38.19
2023-04-14T10:02:50.781Z,41.00
2023-04-14T10:06:22.942Z,42.51
2023-04-14T10:09:39.454Z,47.14
2023-04-14T10:13:31.790Z,47.06
2023-04-14T10:16:58.126Z,48.90
2023-04-14T10:20:37.691Z,47.50
2023-04-14T10:25:53.415Z,46.24
2023-04-14T10:39:28.053Z,41.10
2023-04-14T10:42:41.211Z,40.28
2023-04-14T10:56:29.980Z,39.15
2023-04-14T11:10:48.681Z,40.53
2023-04-14T11:13:33.798Z,40.55
2023-04-14T11:17:29.665Z,38.27
2023-04-14T11:21:17.979Z,38.21
2023-04-14T11:35:09.778Z,39.04
2023-04-14T13:16:12.030Z,38.22
2023-04-14T13:18:17.618Z,36.06
2023-04-14T13:21:53.013Z,37.09
2023-04-14T13:25:00.099Z,37.03
2023-04-14T13:48:20.541Z,36.71
2023-04-14T14:01:53.047Z,36.19
2023-04-14T14:04:53.625Z,36.39
2023-04-14T14:08:40.959Z,35.31
2023-04-14T14:12:00.172Z,34.06
2023-04-14T14:15:46.313Z,34.78
2023-04-14T14:19:23.349Z,34.66
2023-04-14T14:23:20.979Z,37.81
2023-04-14T14:26:50.535Z,36.55
2023-04-14T14:30:09.087Z,35.45
2023-04-14T14:33:47.985Z,36.40
2023-04-14T14:36:15.987Z,34.88
2023-04-14T14:38:47.909Z,32.97
2023-04-14T14:41:18.638Z,34.51
2023-04-14T14:43:46.427Z,32.44
2023-04-14T14:46:14.432Z,31.33
2023-04-14T14:48:42.354Z,30.88
2023-04-14T14:51:10.457Z,32.87
2023-04-14T14:53:39.065Z,34.56
2023-04-14T14:56:07.474Z,34.57
2023-04-14T14:58:35.302Z,35.65
2023-04-14T15:01:06.105Z,35.75
2023-04-14T15:03:35.413Z,33.02
2023-04-14T15:06:15.922Z,29.86
2023-04-14T15:08:46.346Z,27.70
2023-04-14T15:11:20.013Z,27.73
2023-04-14T15:13:49.260Z,27.48
2023-04-14T15:16:17.110Z,28.60
2023-04-14T15:18:44.839Z,32.44
2023-04-14T15:21:16.620Z,36.54
2023-04-14T15:23:45.628Z,38.35
2023-04-14T15:26:21.274Z,39.94
2023-04-14T16:09:06.770Z,47.56
2023-04-14T16:22:18.457Z,48.94
2023-04-14T16:24:46.705Z,48.97
2023-04-14T16:33:16.161Z,49.77
2023-04-14T16:35:43.872Z,50.89
2023-04-14T16:38:12.226Z,52.20
2023-04-14T16:40:40.142Z,53.19
2023-04-14T16:43:09.598Z,54.09
2023-04-14T16:45:37.386Z,55.32
2023-04-14T16:48:05.388Z,56.22
2023-04-14T16:50:37.124Z,56.84
2023-04-14T16:53:04.859Z,57.52
2023-04-14T16:55:35.437Z,58.01
2023-04-14T16:58:03.614Z,58.30
2023-04-14T17:00:31.742Z,58.82
2023-04-14T17:02:59.898Z,59.17
2023-04-14T17:05:28.056Z,59.64
2023-04-14T17:07:55.938Z,59.86
2023-04-14T17:10:25.582Z,60.20
2023-04-14T17:12:53.954Z,60.85
2023-04-14T17:15:21.865Z,61.55
2023-04-14T17:17:49.604Z,61.75
2023-04-14T17:20:17.409Z,61.53
2023-04-14T17:22:47.577Z,62.07
2023-04-14T17:25:19.305Z,62.21
2023-04-14T17:27:47.756Z,62.27
2023-04-14T17:30:18.153Z,62.60
2023-04-14T17:32:49.721Z,62.60
2023-04-14T17:35:17.774Z,63.30
2023-04-14T17:37:46.107Z,63.74
2023-04-14T17:40:17.519Z,63.99
2023-04-14T17:42:45.956Z,63.91
2023-04-14T17:45:13.802Z,63.79
2023-04-14T17:47:42.691Z,63.96
2023-04-14T17:50:11.829Z,64.26
2023-04-14T17:52:40.159Z,64.50
2023-04-14T17:55:09.101Z,64.93
2023-04-14T17:57:37.760Z,64.99
2023-04-14T18:00:28.473Z,65.02
2023-04-14T18:03:01.813Z,65.20
2023-04-14T18:05:31.255Z,65.72
2023-04-14T18:08:01.406Z,65.93
2023-04-14T18:10:29.504Z,65.53
2023-04-14T18:12:57.847Z,65.49
2023-04-14T18:15:25.764Z,65.58
2023-04-14T18:18:11.606Z,65.90
2023-04-14T18:20:39.990Z,65.97
2023-04-14T18:23:07.791Z,65.80
2023-04-14T18:28:06.593Z,65.96
2023-04-14T18:30:34.559Z,66.14
2023-04-14T18:33:02.526Z,66.15
2023-04-14T18:35:30.243Z,66.34
2023-04-14T18:37:59.327Z,66.13
2023-04-14T18:40:27.837Z,66.35
2023-04-14T18:42:57.264Z,66.71
2023-04-14T18:45:26.648Z,66.36
2023-04-14T18:47:54.530Z,66.57
2023-04-14T18:50:22.204Z,66.65
2023-04-14T18:52:50.128Z,66.64
2023-04-14T18:55:19.186Z,66.61
2023-04-14T18:57:48.444Z,66.27
2023-04-14T19:00:16.841Z,66.27
2023-04-14T19:02:44.693Z,66.41
2023-04-14T19:05:13.241Z,66.40
2023-04-14T19:07:41.036Z,66.65
2023-04-14T19:10:10.770Z,66.62
2023-04-14T19:12:40.494Z,66.63
2023-04-14T19:15:08.947Z,66.75
2023-04-14T19:17:38.016Z,66.97
2023-04-14T19:20:07.391Z,67.10
2023-04-14T19:22:38.361Z,67.28
2023-04-14T19:25:06.548Z,67.47
2023-04-14T19:27:36.120Z,67.54
2023-04-14T19:30:05.079Z,67.53
2023-04-14T19:32:36.019Z,67.51
2023-04-14T19:35:06.372Z,67.63
2023-04-14T19:37:34.947Z,67.31
2023-04-14T19:40:06.165Z,67.35
2023-04-14T19:42:34.093Z,67.56
2023-04-14T19:45:02.153Z,67.29
2023-04-14T19:47:30.097Z,67.35
2023-04-14T19:49:59.775Z,67.60
2023-04-14T19:52:28.252Z,67.96
2023-04-14T19:54:56.881Z,68.22
2023-04-14T19:57:24.588Z,68.05
2023-04-14T19:59:52.356Z,68.20
2023-04-14T20:02:20.094Z,68.26
2023-04-14T20:04:48.440Z,68.44
2023-04-14T20:07:16.241Z,68.53
2023-04-14T20:09:46.615Z,69.02
2023-04-14T20:12:14.374Z,69.12
2023-04-14T20:14:42.125Z,69.19
2023-04-14T20:17:09.758Z,69.28
2023-04-14T20:19:38.012Z,69.26
2023-04-14T20:22:05.693Z,69.22
2023-04-14T20:24:33.917Z,69.50
2023-04-14T20:27:01.570Z,69.95
2023-04-14T20:29:30.740Z,69.89
2023-04-14T20:31:58.724Z,69.87
2023-04-14T20:34:26.707Z,69.68
2023-04-14T20:36:55.170Z,69.24
2023-04-14T20:39:23.056Z,69.21
2023-04-14T20:41:51.729Z,69.11
2023-04-14T20:44:19.433Z,69.51
2023-04-14T20:46:48.212Z,69.06
2023-04-14T20:49:16.180Z,68.95
2023-04-14T20:51:46.758Z,69.12
2023-04-14T20:54:14.451Z,68.83
2023-04-14T20:56:42.152Z,68.79
2023-04-14T20:59:10.353Z,68.57
2023-04-14T21:01:39.051Z,68.50
2023-04-14T21:04:07.081Z,68.69
2023-04-14T21:06:35.303Z,68.85
2023-04-14T21:09:03.986Z,68.96
2023-04-14T21:11:32.522Z,69.35
2023-04-14T21:15:29.029Z,69.16
2023-04-14T21:16:48.177Z,69.23
2023-04-14T21:19:16.329Z,69.43
2023-04-14T21:21:43.985Z,69.37
2023-04-14T21:24:14.699Z,69.38
2023-04-14T21:26:42.480Z,69.97
2023-04-14T21:29:10.202Z,70.59
2023-04-14T21:31:38.646Z,70.28
2023-04-14T21:34:06.469Z,70.06
2023-04-14T21:36:34.678Z,70.55
2023-04-14T21:39:04.185Z,69.99
2023-04-14T21:41:35.765Z,70.04
2023-04-14T21:44:04.168Z,70.21
2023-04-14T21:46:34.811Z,70.72
2023-04-14T21:49:02.906Z,70.60
2023-04-14T21:51:30.727Z,70.87
2023-04-14T21:53:58.652Z,71.04
2023-04-14T21:56:26.369Z,71.33
2023-04-14T21:58:54.613Z,71.61
2023-04-14T22:01:23.759Z,71.63
2023-04-14T22:03:51.910Z,71.46
2023-04-14T22:06:21.234Z,70.95
2023-04-14T22:08:49.008Z,71.61
2023-04-14T22:11:19.069Z,71.39
2023-04-14T22:13:47.773Z,71.71
2023-04-14T22:16:16.405Z,71.31
2023-04-14T22:18:45.472Z,71.32
2023-04-14T22:21:15.390Z,71.15
2023-04-14T22:23:43.830Z,71.23
2023-04-14T22:26:12.586Z,71.01
2023-04-14T22:28:41.366Z,71.17
2023-04-14T22:31:09.716Z,71.30
2023-04-14T22:33:37.492Z,71.45
2023-04-14T22:36:07.015Z,71.64
2023-04-14T22:38:34.791Z,71.97
2023-04-14T22:41:02.490Z,71.88
2023-04-14T22:43:30.129Z,71.73
2023-04-14T22:45:58.024Z,71.57
2023-04-14T22:48:25.804Z,71.79
2023-04-14T22:50:53.440Z,71.52
2023-04-14T22:53:21.096Z,71.85
2023-04-14T22:55:48.799Z,72.16
2023-04-14T22:58:17.667Z,72.66
2023-04-14T23:00:46.200Z,72.69
2023-04-14T23:03:14.037Z,73.00
2023-04-14T23:05:41.970Z,72.94
2023-04-14T23:08:10.260Z,72.81
2023-04-14T23:10:38.511Z,72.89
2023-04-14T23:13:06.364Z,72.98
2023-04-14T23:15:34.044Z,72.93
2023-04-14T23:18:02.293Z,72.86
2023-04-14T23:20:32.088Z,73.05
2023-04-14T23:22:59.692Z,72.98
2023-04-14T23:25:27.801Z,72.80
2023-04-14T23:27:55.500Z,72.62
2023-04-14T23:30:23.215Z,72.64
2023-04-14T23:32:50.932Z,72.53
2023-04-14T23:35:18.647Z,72.77
2023-04-14T23:37:46.286Z,73.18
2023-04-14T23:40:14.323Z,72.92
2023-04-14T23:42:41.984Z,72.87
2023-04-14T23:45:09.809Z,73.09
2023-04-14T23:47:37.622Z,72.91
2023-04-14T23:50:05.819Z,73.31
2023-04-14T23:52:36.005Z,73.27
2023-04-14T23:55:03.936Z,73.36
2023-04-14T23:57:31.575Z,73.59
2023-04-14T23:59:59.187Z,73.69
